Terminal Aerodrome Forecast
Issued by NWS

Home | Current Version | Previous Version | Text Only | Print | Product List | Glossary Off
Versions: 1 2 3 4 5 6 7 8 9 10 11 12 13 14 15 16 17 18 19 20 21

000
FTUS43 KMPX 281700
TAFRNH
TAF
KRNH 281732Z 2818/2918 21007KT P6SM SCT050
     FM290000 23004KT P6SM SCT060
     FM290500 26003KT P6SM BKN080
     FM290900 33003KT 5SM BR VCSH SCT020 OVC040
     FM291200 02007KT 4SM -RA BR BKN007 OVC012
     FM291500 02009KT P6SM SCT008 OVC018=

USA.gov is the U.S. government's official web portal to all federal, state and local government web resources and services.